Nielsville, Minnesota
Current Conditions -  °F | °C
As of 6:14 AM on Friday 19 Dec 2014 (Local Time) from KCKN Reporting Station
Haze Haze  
Wind Chill: 11°   Ceiling: 800
Heat Index: 23°   Visibility: 5mi
Dew Point: 21°   Wind: 14mph
Humidity: 93%   Direction: 170°S
Pressure: 30.1"   Gusts: NA
Location:  47.53°N, 96.82°W
Report Text: KCKN 191214Z AUTO 17012KT 5SM BR OVC008 M05/M06 A3010 RMK AO2
Loading
Personal Weather Stations






























Interactive Weather Map New forecast layout! Learn more

10-Day Weather Forecast

Advertisements
Track Severe Weather on mobile